createdAt,value
2019-02-18T00:04:26.444Z,96.80
2019-02-18T00:09:23.853Z,97.00
2019-02-18T00:14:19.599Z,97.50
2019-02-18T00:19:16.324Z,97.80
2019-02-18T00:24:12.101Z,97.70
2019-02-18T00:29:07.845Z,97.80
2019-02-18T00:34:04.756Z,97.80
2019-02-18T00:39:00.518Z,98.00
2019-02-18T00:43:56.277Z,98.00
2019-02-18T00:48:52.015Z,98.00
2019-02-18T00:53:47.859Z,98.00
2019-02-18T00:58:43.824Z,98.10
2019-02-18T01:03:41.802Z,98.30
2019-02-18T01:08:39.112Z,98.10
2019-02-18T01:13:34.899Z,97.90
2019-02-18T01:18:30.672Z,97.70
2019-02-18T01:23:26.439Z,97.60
2019-02-18T01:28:22.213Z,98.00
2019-02-18T01:33:18.376Z,98.60
2019-02-18T01:38:14.075Z,98.30
2019-02-18T01:43:09.892Z,98.20
2019-02-18T01:48:05.850Z,98.40
2019-02-18T01:53:01.620Z,98.70
2019-02-18T01:57:57.275Z,99.00
2019-02-18T02:02:52.997Z,99.30
2019-02-18T02:07:55.887Z,99.50
2019-02-18T02:12:46.225Z,99.40
2019-02-18T02:17:44.792Z,99.00
2019-02-18T02:22:40.560Z,99.00
2019-02-18T02:27:36.331Z,99.10
2019-02-18T02:32:32.123Z,99.30
2019-02-18T02:37:27.872Z,99.40
2019-02-18T02:42:23.626Z,99.80
2019-02-18T02:47:19.415Z,99.90
2019-02-18T02:52:15.158Z,99.50
2019-02-18T02:57:10.877Z,99.50
2019-02-18T03:02:06.761Z,99.50
2019-02-18T03:07:04.089Z,99.10
2019-02-18T03:11:59.863Z,99.60
2019-02-18T03:16:55.642Z,99.90
2019-02-18T03:21:53.982Z,99.20
2019-02-18T03:26:49.670Z,99.30
2019-02-18T03:31:45.457Z,99.40
2019-02-18T03:36:41.629Z,99.70
2019-02-18T03:41:37.474Z,99.80
2019-02-18T03:46:33.330Z,99.80
2019-02-18T03:51:29.056Z,99.90
2019-02-18T03:56:24.837Z,99.90
2019-02-18T04:01:20.721Z,99.90
2019-02-18T04:06:17.033Z,99.90
2019-02-18T04:11:12.803Z,99.90
2019-02-18T04:16:08.536Z,99.90
2019-02-18T04:21:04.354Z,99.90
2019-02-18T04:26:00.145Z,99.90
2019-02-18T04:30:58.130Z,99.90
2019-02-18T04:35:54.465Z,99.90
2019-02-18T04:40:51.274Z,99.90
2019-02-18T04:45:47.050Z,99.90
2019-02-18T04:50:42.834Z,99.90
2019-02-18T04:55:38.534Z,99.90
2019-02-18T05:00:34.265Z,99.90
2019-02-18T05:05:30.056Z,99.90
2019-02-18T05:10:25.882Z,99.90
2019-02-18T05:15:21.637Z,99.90
2019-02-18T05:20:17.462Z,99.90
2019-02-18T05:25:13.917Z,99.90
2019-02-18T05:30:09.750Z,99.90
2019-02-18T05:35:05.607Z,99.90
2019-02-18T05:40:01.405Z,99.90
2019-02-18T05:44:57.209Z,99.90
2019-02-18T05:49:53.015Z,99.90
2019-02-18T05:54:48.849Z,99.90
2019-02-18T05:59:44.689Z,99.90
2019-02-18T06:04:40.534Z,99.90
2019-02-18T06:09:36.656Z,99.90
2019-02-18T06:14:33.498Z,99.90
2019-02-18T06:19:29.306Z,99.90
2019-02-18T06:24:25.570Z,99.90
2019-02-18T06:29:21.540Z,99.90
2019-02-18T06:34:19.691Z,99.90
2019-02-18T06:39:16.148Z,99.90
2019-02-18T06:44:13.470Z,99.90
2019-02-18T06:49:17.578Z,99.90
2019-02-18T06:54:13.336Z,99.70
2019-02-18T06:59:17.266Z,99.80
2019-02-18T07:04:47.477Z,99.90
2019-02-18T07:10:07.874Z,99.90
2019-02-18T07:15:03.687Z,99.90
2019-02-18T07:20:01.352Z,99.90
2019-02-18T07:24:57.860Z,99.90
2019-02-18T07:29:53.734Z,99.90
2019-02-18T07:34:49.610Z,99.90
2019-02-18T07:39:45.501Z,99.80
2019-02-18T07:44:41.211Z,99.70
2019-02-18T07:49:36.984Z,99.60
2019-02-18T07:54:32.824Z,98.90
2019-02-18T07:59:28.886Z,98.60
2019-02-18T08:04:47.629Z,98.60
2019-02-18T08:09:45.342Z,98.70
2019-02-18T08:14:41.135Z,98.20
2019-02-18T08:19:36.876Z,97.90
2019-02-18T08:24:32.673Z,97.70
2019-02-18T08:29:30.040Z,97.10
2019-02-18T08:34:26.746Z,96.50
2019-02-18T08:39:22.461Z,95.80
2019-02-18T08:44:18.226Z,94.80
2019-02-18T08:49:14.075Z,93.80
2019-02-18T08:54:09.883Z,93.50
2019-02-18T08:59:05.732Z,92.50
2019-02-18T09:04:01.476Z,91.50
2019-02-18T09:08:57.663Z,90.20
2019-02-18T09:13:53.506Z,88.60
2019-02-18T09:18:49.332Z,85.60
2019-02-18T09:23:50.559Z,82.80
2019-02-18T09:28:46.353Z,81.40
2019-02-18T09:33:42.157Z,79.70
2019-02-18T09:38:38.053Z,77.20
2019-02-18T09:43:33.802Z,76.50
2019-02-18T09:48:31.761Z,73.30
2019-02-18T09:53:27.499Z,72.00
2019-02-18T09:58:23.344Z,69.50
2019-02-18T10:03:19.272Z,66.10
2019-02-18T10:08:15.284Z,65.50
2019-02-18T10:13:11.101Z,60.80
2019-02-18T10:18:07.160Z,57.20
2019-02-18T10:23:03.114Z,54.30
2019-02-18T10:27:59.938Z,51.80
2019-02-18T10:32:55.818Z,50.30
2019-02-18T10:37:54.986Z,49.50
2019-02-18T10:42:51.307Z,47.10
2019-02-18T10:47:47.248Z,46.00
2019-02-18T10:52:43.186Z,45.40
2019-02-18T10:57:39.917Z,44.00
2019-02-18T11:02:35.818Z,42.60
2019-02-18T11:07:31.570Z,42.20
2019-02-18T11:12:28.457Z,40.70
2019-02-18T11:17:24.246Z,40.00
2019-02-18T11:22:20.053Z,40.90
2019-02-18T11:27:16.065Z,40.40
2019-02-18T11:32:11.884Z,39.70
2019-02-18T11:37:07.630Z,38.50
2019-02-18T11:42:03.384Z,35.90
2019-02-18T11:47:00.522Z,35.00
2019-02-18T11:52:00.101Z,32.20
2019-02-18T11:56:54.788Z,32.40
2019-02-18T12:01:50.578Z,31.70
2019-02-18T12:06:49.396Z,30.50
2019-02-18T12:11:45.322Z,28.80
2019-02-18T12:16:41.142Z,28.30
2019-02-18T12:21:36.946Z,29.00
2019-02-18T12:26:32.845Z,28.80
2019-02-18T12:31:31.774Z,28.90
2019-02-18T12:36:27.726Z,28.80
2019-02-18T12:41:23.838Z,28.30
2019-02-18T12:46:19.874Z,27.90
2019-02-18T12:51:16.009Z,27.00
2019-02-18T12:56:12.053Z,27.00
2019-02-18T13:01:08.659Z,26.10
2019-02-18T13:06:02.842Z,25.70
2019-02-18T13:10:58.986Z,25.00
2019-02-18T13:15:55.178Z,24.80
2019-02-18T13:20:51.226Z,24.20
2019-02-18T13:25:47.613Z,24.30
2019-02-18T13:30:45.258Z,24.00
2019-02-18T13:35:41.570Z,25.70
2019-02-18T13:40:37.776Z,25.50
2019-02-18T13:45:34.235Z,25.30
2019-02-18T13:50:30.411Z,25.40
2019-02-18T13:55:26.872Z,25.70
2019-02-18T14:00:25.806Z,25.60
2019-02-18T14:05:22.365Z,25.50
2019-02-18T14:10:18.907Z,25.50
2019-02-18T14:15:15.762Z,25.30
2019-02-18T14:20:14.169Z,25.40
2019-02-18T14:25:11.303Z,25.20
2019-02-18T14:30:08.951Z,25.00
2019-02-18T14:35:11.356Z,24.90
2019-02-18T14:40:10.670Z,24.40
2019-02-18T14:45:07.258Z,24.40
2019-02-18T14:50:06.227Z,23.70
2019-02-18T14:55:02.840Z,24.10
2019-02-18T14:59:58.960Z,24.00
2019-02-18T15:04:57.423Z,23.80
2019-02-18T15:09:53.467Z,24.50
2019-02-18T15:15:07.595Z,25.40
2019-02-18T15:20:04.098Z,27.80
2019-02-18T15:25:01.806Z,29.90
2019-02-18T15:29:58.042Z,31.60
2019-02-18T15:34:54.027Z,32.70
2019-02-18T15:39:50.692Z,33.50
2019-02-18T15:44:46.630Z,34.80
2019-02-18T15:49:42.993Z,35.80
2019-02-18T15:54:39.082Z,36.80
2019-02-18T15:59:35.173Z,37.70
2019-02-18T16:04:31.730Z,38.90
2019-02-18T16:09:27.751Z,39.80
2019-02-18T16:14:24.161Z,41.10
2019-02-18T16:19:20.038Z,42.10
2019-02-18T16:24:19.944Z,42.90
2019-02-18T16:29:15.074Z,43.40
2019-02-18T16:34:10.943Z,44.10
2019-02-18T16:39:07.997Z,44.90
2019-02-18T16:44:07.067Z,45.40
2019-02-18T16:49:03.129Z,46.30
2019-02-18T16:53:59.556Z,47.50
2019-02-18T16:58:58.318Z,49.00
2019-02-18T17:03:54.189Z,50.10
2019-02-18T17:08:50.313Z,52.40
2019-02-18T17:13:46.382Z,54.60
2019-02-18T17:18:42.761Z,55.20
2019-02-18T17:23:39.584Z,56.10
2019-02-18T17:28:36.252Z,57.50
2019-02-18T17:33:32.171Z,59.00
2019-02-18T17:38:29.358Z,61.50
2019-02-18T17:43:28.335Z,64.10
2019-02-18T17:48:25.730Z,65.70
2019-02-18T17:53:21.519Z,67.90
2019-02-18T17:58:17.472Z,70.60
2019-02-18T18:03:13.998Z,71.90
2019-02-18T18:08:10.503Z,73.60
2019-02-18T18:13:06.509Z,74.60
2019-02-18T18:18:02.619Z,75.70
2019-02-18T18:22:58.508Z,76.40
2019-02-18T18:27:54.676Z,77.50
2019-02-18T18:32:50.478Z,77.90
2019-02-18T18:37:46.412Z,78.80
2019-02-18T18:42:42.920Z,79.70
2019-02-18T18:47:38.778Z,80.70
2019-02-18T18:52:34.692Z,81.70
2019-02-18T18:57:31.133Z,82.50
2019-02-18T19:02:28.674Z,83.10
2019-02-18T19:07:24.696Z,83.20
2019-02-18T19:12:21.189Z,83.20
2019-02-18T19:17:17.217Z,83.80
2019-02-18T19:22:13.436Z,84.40
2019-02-18T19:27:09.428Z,86.00
2019-02-18T19:32:06.541Z,86.30
2019-02-18T19:37:05.860Z,87.00
2019-02-18T19:42:01.737Z,87.50
2019-02-18T19:46:57.765Z,88.70
2019-02-18T19:51:55.283Z,89.70
2019-02-18T19:56:52.599Z,90.10
2019-02-18T20:01:51.497Z,90.30
2019-02-18T20:06:47.843Z,90.40
2019-02-18T20:12:03.072Z,90.70
2019-02-18T20:16:59.047Z,91.00
2019-02-18T20:21:54.952Z,91.20
2019-02-18T20:26:51.420Z,91.60
2019-02-18T20:31:47.257Z,91.90
2019-02-18T20:36:43.189Z,92.20
2019-02-18T20:41:39.467Z,92.20
2019-02-18T20:46:35.838Z,92.10
2019-02-18T20:51:33.042Z,92.60
2019-02-18T20:56:30.660Z,93.10
2019-02-18T21:01:27.012Z,93.70
2019-02-18T21:06:25.856Z,94.10
2019-02-18T21:11:23.475Z,94.80
2019-02-18T21:16:19.404Z,94.90
2019-02-18T21:21:19.908Z,94.70
2019-02-18T21:26:15.897Z,94.60
2019-02-18T21:31:11.920Z,95.10
2019-02-18T21:36:09.181Z,95.00
2019-02-18T21:41:05.160Z,95.30
2019-02-18T21:46:01.448Z,95.50
2019-02-18T21:50:59.081Z,95.60
2019-02-18T21:55:55.480Z,95.80
2019-02-18T22:00:51.744Z,96.00
2019-02-18T22:05:47.852Z,96.10
2019-02-18T22:10:44.092Z,96.60
2019-02-18T22:15:40.420Z,96.70
2019-02-18T22:20:36.906Z,96.70
2019-02-18T22:25:33.238Z,96.90
2019-02-18T22:30:29.350Z,96.90
2019-02-18T22:35:26.010Z,97.00
2019-02-18T22:40:21.958Z,97.40
2019-02-18T22:45:19.746Z,97.40
2019-02-18T22:50:15.857Z,97.40
2019-02-18T22:55:12.625Z,97.60
2019-02-18T23:00:17.241Z,97.80
2019-02-18T23:05:14.670Z,98.30
2019-02-18T23:10:10.724Z,98.40
2019-02-18T23:15:06.856Z,98.40
2019-02-18T23:20:03.006Z,98.50
2019-02-18T23:24:59.466Z,98.40
2019-02-18T23:29:55.863Z,98.60
2019-02-18T23:34:51.956Z,98.50
2019-02-18T23:39:47.957Z,98.60
2019-02-18T23:44:45.861Z,98.40
2019-02-18T23:49:42.257Z,98.30
2019-02-18T23:54:38.353Z,98.70
2019-02-18T23:59:34.581Z,98.70
